Allouez, Michigan
Current Conditions -  °F | °C
As of 11:37 AM on Monday 26 Jan 2015 (Local Time) from KCMX Reporting Station
Light Snow Light Snow  
Wind Chill:   Ceiling: 3900
Heat Index: 16°   Visibility: 3mi
Dew Point: 11°   Wind: 13mph
Humidity: 81%   Direction: 170°S
Pressure: 29.76"   Gusts: NA
Location:  47.29°N, 88.41°W
Report Text: KCMX 261637Z AUTO 17011KT 3SM -SN BKN039 OVC049 M09/M12 A2976 RMK AO2 P0000 T10891117
Loading
Personal Weather Stations






























Interactive Weather Map New forecast layout! Learn more

10-Day Weather Forecast

Advertisements
Track Severe Weather on mobile